Atwood, Indiana
Current Conditions -  °F | °C
As of 12:15 AM on Monday 20 Oct 2014 (Local Time) from KASW Reporting Station
Scattered Clouds Scattered Clouds  
Wind Chill: 46°   Ceiling: Unl
Heat Index: 48°   Visibility: 10mi
Dew Point: 41°   Wind: 6mph
Humidity: 76%   Direction: 220°SW
Pressure: 29.98"   Gusts: NA
Location:  41.26°N, 85.98°W
Report Text: KASW 200415Z AUTO 22005KT 10SM SCT100 09/05 A2998 RMK AO2
Loading
Personal Weather Stations






























Interactive Weather Map New forecast layout! Learn more

10-Day Weather Forecast

Advertisements
Track Severe Weather on mobile